sensor_id;sensor_type;location;lat;lon;timestamp;temperature;humidity
6429;DHT22;3247;48.946;10.220;2023-04-03T00:01:04;2.10;99.90
6429;DHT22;3247;48.946;10.220;2023-04-03T00:03:33;2.10;99.90
6429;DHT22;3247;48.946;10.220;2023-04-03T00:05:58;2.20;99.90
6429;DHT22;3247;48.946;10.220;2023-04-03T00:08:24;2.20;99.90
6429;DHT22;3247;48.946;10.220;2023-04-03T00:10:50;2.10;99.90
6429;DHT22;3247;48.946;10.220;2023-04-03T00:13:15;2.10;99.90
6429;DHT22;3247;48.946;10.220;2023-04-03T00:15:41;2.10;99.90
6429;DHT22;3247;48.946;10.220;2023-04-03T00:18:07;2.10;99.90
6429;DHT22;3247;48.946;10.220;2023-04-03T00:20:33;2.10;99.90
6429;DHT22;3247;48.946;10.220;2023-04-03T00:22:58;2.10;99.90
6429;DHT22;3247;48.946;10.220;2023-04-03T00:25:24;2.00;99.90
6429;DHT22;3247;48.946;10.220;2023-04-03T00:27:49;2.00;99.90
6429;DHT22;3247;48.946;10.220;2023-04-03T00:30:16;2.00;99.90
6429;DHT22;3247;48.946;10.220;2023-04-03T00:32:42;2.00;99.90
6429;DHT22;3247;48.946;10.220;2023-04-03T00:35:08;2.10;99.90
6429;DHT22;3247;48.946;10.220;2023-04-03T00:37:34;2.10;99.90
6429;DHT22;3247;48.946;10.220;2023-04-03T00:39:59;2.10;99.90
6429;DHT22;3247;48.946;10.220;2023-04-03T00:42:25;2.10;99.90
6429;DHT22;3247;48.946;10.220;2023-04-03T00:47:22;2.10;99.90
6429;DHT22;3247;48.946;10.220;2023-04-03T00:49:48;2.10;99.90
6429;DHT22;3247;48.946;10.220;2023-04-03T00:52:16;2.10;99.90
6429;DHT22;3247;48.946;10.220;2023-04-03T00:54:42;2.10;99.90
6429;DHT22;3247;48.946;10.220;2023-04-03T00:57:09;2.10;99.90
6429;DHT22;3247;48.946;10.220;2023-04-03T00:59:37;2.00;99.90
6429;DHT22;3247;48.946;10.220;2023-04-03T01:02:03;2.00;99.90
6429;DHT22;3247;48.946;10.220;2023-04-03T01:04:40;2.00;99.90
6429;DHT22;3247;48.946;10.220;2023-04-03T01:07:10;2.00;99.90
6429;DHT22;3247;48.946;10.220;2023-04-03T01:09:37;2.40;99.90
6429;DHT22;3247;48.946;10.220;2023-04-03T01:12:16;2.10;99.90
6429;DHT22;3247;48.946;10.220;2023-04-03T01:14:43;2.60;99.90
6429;DHT22;3247;48.946;10.220;2023-04-03T01:19:57;2.10;99.90
6429;DHT22;3247;48.946;10.220;2023-04-03T01:22:33;2.10;99.90
6429;DHT22;3247;48.946;10.220;2023-04-03T01:25:04;2.10;99.90
6429;DHT22;3247;48.946;10.220;2023-04-03T01:27:29;2.10;99.90
6429;DHT22;3247;48.946;10.220;2023-04-03T01:29:55;2.10;99.90
6429;DHT22;3247;48.946;10.220;2023-04-03T01:32:20;2.00;99.90
6429;DHT22;3247;48.946;10.220;2023-04-03T01:34:51;2.00;99.90
6429;DHT22;3247;48.946;10.220;2023-04-03T01:37:17;2.00;99.90
6429;DHT22;3247;48.946;10.220;2023-04-03T01:39:42;2.00;99.90
6429;DHT22;3247;48.946;10.220;2023-04-03T01:42:07;2.00;99.90
6429;DHT22;3247;48.946;10.220;2023-04-03T01:44:33;2.10;99.90
6429;DHT22;3247;48.946;10.220;2023-04-03T01:46:58;2.00;99.90
6429;DHT22;3247;48.946;10.220;2023-04-03T01:49:24;2.00;99.90
6429;DHT22;3247;48.946;10.220;2023-04-03T01:51:50;2.00;99.90
6429;DHT22;3247;48.946;10.220;2023-04-03T01:54:15;2.00;99.90
6429;DHT22;3247;48.946;10.220;2023-04-03T01:56:40;1.90;99.90
6429;DHT22;3247;48.946;10.220;2023-04-03T01:59:06;2.00;99.90
6429;DHT22;3247;48.946;10.220;2023-04-03T02:01:31;1.90;99.90
6429;DHT22;3247;48.946;10.220;2023-04-03T02:03:57;1.90;99.90
6429;DHT22;3247;48.946;10.220;2023-04-03T02:06:23;1.80;99.90
6429;DHT22;3247;48.946;10.220;2023-04-03T02:08:48;1.90;99.90
6429;DHT22;3247;48.946;10.220;2023-04-03T02:11:14;1.90;99.90
6429;DHT22;3247;48.946;10.220;2023-04-03T02:13:39;1.90;99.90
6429;DHT22;3247;48.946;10.220;2023-04-03T02:16:11;1.90;99.90
6429;DHT22;3247;48.946;10.220;2023-04-03T02:18:37;1.90;99.90
6429;DHT22;3247;48.946;10.220;2023-04-03T02:21:03;1.90;99.90
6429;DHT22;3247;48.946;10.220;2023-04-03T02:23:29;1.90;99.90
6429;DHT22;3247;48.946;10.220;2023-04-03T02:26:02;1.90;99.90
6429;DHT22;3247;48.946;10.220;2023-04-03T02:28:28;1.90;99.90
6429;DHT22;3247;48.946;10.220;2023-04-03T02:30:53;1.80;99.90
6429;DHT22;3247;48.946;10.220;2023-04-03T02:33:19;1.90;99.90
6429;DHT22;3247;48.946;10.220;2023-04-03T02:35:44;1.80;99.90
6429;DHT22;3247;48.946;10.220;2023-04-03T02:38:18;1.80;99.90
6429;DHT22;3247;48.946;10.220;2023-04-03T02:40:43;1.80;99.90
6429;DHT22;3247;48.946;10.220;2023-04-03T02:43:09;1.80;99.90
6429;DHT22;3247;48.946;10.220;2023-04-03T02:45:35;1.80;99.90
6429;DHT22;3247;48.946;10.220;2023-04-03T02:48:00;1.80;99.90
6429;DHT22;3247;48.946;10.220;2023-04-03T02:50:26;1.70;99.90
6429;DHT22;3247;48.946;10.220;2023-04-03T02:52:51;1.70;99.90
6429;DHT22;3247;48.946;10.220;2023-04-03T02:55:17;1.70;99.90
6429;DHT22;3247;48.946;10.220;2023-04-03T02:57:42;1.70;99.90
6429;DHT22;3247;48.946;10.220;2023-04-03T03:00:08;1.80;99.90
6429;DHT22;3247;48.946;10.220;2023-04-03T03:02:34;1.70;99.90
6429;DHT22;3247;48.946;10.220;2023-04-03T03:05:04;1.70;99.90
6429;DHT22;3247;48.946;10.220;2023-04-03T03:07:31;1.60;99.90
6429;DHT22;3247;48.946;10.220;2023-04-03T03:09:56;1.60;99.90
6429;DHT22;3247;48.946;10.220;2023-04-03T03:12:22;1.60;99.90
6429;DHT22;3247;48.946;10.220;2023-04-03T03:14:48;1.70;99.90
6429;DHT22;3247;48.946;10.220;2023-04-03T03:17:14;1.70;99.90
6429;DHT22;3247;48.946;10.220;2023-04-03T03:19:39;1.70;99.90
6429;DHT22;3247;48.946;10.220;2023-04-03T03:22:05;1.60;99.90
6429;DHT22;3247;48.946;10.220;2023-04-03T03:24:31;1.60;99.90
6429;DHT22;3247;48.946;10.220;2023-04-03T03:26:56;1.60;99.90
6429;DHT22;3247;48.946;10.220;2023-04-03T03:29:22;1.60;99.90
6429;DHT22;3247;48.946;10.220;2023-04-03T03:31:47;1.60;99.90
6429;DHT22;3247;48.946;10.220;2023-04-03T03:34:13;1.60;99.90
6429;DHT22;3247;48.946;10.220;2023-04-03T03:36:38;1.60;99.90
6429;DHT22;3247;48.946;10.220;2023-04-03T03:39:04;1.60;99.90
6429;DHT22;3247;48.946;10.220;2023-04-03T03:41:29;1.50;99.90
6429;DHT22;3247;48.946;10.220;2023-04-03T03:43:55;1.40;99.90
6429;DHT22;3247;48.946;10.220;2023-04-03T03:46:20;1.30;99.90
6429;DHT22;3247;48.946;10.220;2023-04-03T03:48:46;1.40;99.90
6429;DHT22;3247;48.946;10.220;2023-04-03T03:51:11;1.30;99.90
6429;DHT22;3247;48.946;10.220;2023-04-03T03:53:37;1.20;99.90
6429;DHT22;3247;48.946;10.220;2023-04-03T03:56:03;1.10;99.90
6429;DHT22;3247;48.946;10.220;2023-04-03T03:58:28;1.10;99.90
6429;DHT22;3247;48.946;10.220;2023-04-03T04:00:54;1.10;99.90
6429;DHT22;3247;48.946;10.220;2023-04-03T04:27:54;1.10;99.90
6429;DHT22;3247;48.946;10.220;2023-04-03T04:30:20;1.10;99.90
6429;DHT22;3247;48.946;10.220;2023-04-03T04:32:54;1.00;99.90
6429;DHT22;3247;48.946;10.220;2023-04-03T04:35:20;1.10;99.90
6429;DHT22;3247;48.946;10.220;2023-04-03T04:37:45;1.00;99.90
6429;DHT22;3247;48.946;10.220;2023-04-03T04:40:11;1.10;99.90
6429;DHT22;3247;48.946;10.220;2023-04-03T04:42:36;1.10;99.90
6429;DHT22;3247;48.946;10.220;2023-04-03T04:45:02;1.00;99.90
6429;DHT22;3247;48.946;10.220;2023-04-03T04:47:28;1.00;99.90
6429;DHT22;3247;48.946;10.220;2023-04-03T04:49:53;1.00;99.90
6429;DHT22;3247;48.946;10.220;2023-04-03T04:52:19;1.00;99.90
6429;DHT22;3247;48.946;10.220;2023-04-03T04:54:44;1.00;99.90
6429;DHT22;3247;48.946;10.220;2023-04-03T04:57:10;1.00;99.90
6429;DHT22;3247;48.946;10.220;2023-04-03T04:59:37;0.90;99.90
6429;DHT22;3247;48.946;10.220;2023-04-03T05:02:02;1.40;99.90
6429;DHT22;3247;48.946;10.220;2023-04-03T05:04:28;1.00;99.90
6429;DHT22;3247;48.946;10.220;2023-04-03T05:06:53;0.90;99.90
6429;DHT22;3247;48.946;10.220;2023-04-03T05:09:19;0.90;99.90
6429;DHT22;3247;48.946;10.220;2023-04-03T05:11:45;0.90;99.90
6429;DHT22;3247;48.946;10.220;2023-04-03T05:14:11;0.90;99.90
6429;DHT22;3247;48.946;10.220;2023-04-03T05:16:36;0.90;99.90
6429;DHT22;3247;48.946;10.220;2023-04-03T05:19:02;1.00;99.90
6429;DHT22;3247;48.946;10.220;2023-04-03T05:21:27;1.00;99.90
6429;DHT22;3247;48.946;10.220;2023-04-03T05:24:00;1.00;99.90
6429;DHT22;3247;48.946;10.220;2023-04-03T05:26:28;0.90;99.90
6429;DHT22;3247;48.946;10.220;2023-04-03T05:28:54;1.00;99.90
6429;DHT22;3247;48.946;10.220;2023-04-03T05:31:20;1.00;99.90
6429;DHT22;3247;48.946;10.220;2023-04-03T05:33:45;1.00;99.90
6429;DHT22;3247;48.946;10.220;2023-04-03T05:36:11;1.00;99.90
6429;DHT22;3247;48.946;10.220;2023-04-03T05:38:38;1.00;99.90
6429;DHT22;3247;48.946;10.220;2023-04-03T05:41:03;1.10;99.90
6429;DHT22;3247;48.946;10.220;2023-04-03T05:43:29;1.10;99.90
6429;DHT22;3247;48.946;10.220;2023-04-03T05:45:54;1.30;99.90
6429;DHT22;3247;48.946;10.220;2023-04-03T05:48:20;1.50;99.90
6429;DHT22;3247;48.946;10.220;2023-04-03T05:50:46;1.60;99.90
6429;DHT22;3247;48.946;10.220;2023-04-03T05:53:30;1.70;99.90
6429;DHT22;3247;48.946;10.220;2023-04-03T05:55:56;1.80;99.90
6429;DHT22;3247;48.946;10.220;2023-04-03T05:58:22;1.70;99.90
6429;DHT22;3247;48.946;10.220;2023-04-03T06:00:47;1.60;99.90
6429;DHT22;3247;48.946;10.220;2023-04-03T06:03:13;1.60;99.90
6429;DHT22;3247;48.946;10.220;2023-04-03T06:05:39;1.70;99.90
6429;DHT22;3247;48.946;10.220;2023-04-03T06:08:04;1.90;99.90
6429;DHT22;3247;48.946;10.220;2023-04-03T06:10:31;1.90;99.90
6429;DHT22;3247;48.946;10.220;2023-04-03T06:12:56;2.40;99.90
6429;DHT22;3247;48.946;10.220;2023-04-03T06:15:22;3.20;99.90
6429;DHT22;3247;48.946;10.220;2023-04-03T06:17:48;3.40;99.90
6429;DHT22;3247;48.946;10.220;2023-04-03T06:20:13;3.10;99.90
6429;DHT22;3247;48.946;10.220;2023-04-03T06:22:39;2.80;99.90
6429;DHT22;3247;48.946;10.220;2023-04-03T06:25:05;2.50;99.90
6429;DHT22;3247;48.946;10.220;2023-04-03T06:27:31;2.10;99.90
6429;DHT22;3247;48.946;10.220;2023-04-03T06:29:56;2.00;99.90
6429;DHT22;3247;48.946;10.220;2023-04-03T06:32:22;2.00;99.90
6429;DHT22;3247;48.946;10.220;2023-04-03T06:34:47;2.00;99.90
6429;DHT22;3247;48.946;10.220;2023-04-03T06:37:20;2.00;99.90
6429;DHT22;3247;48.946;10.220;2023-04-03T06:39:47;2.00;99.90
6429;DHT22;3247;48.946;10.220;2023-04-03T06:42:13;2.90;99.90
6429;DHT22;3247;48.946;10.220;2023-04-03T06:44:38;2.20;99.90
6429;DHT22;3247;48.946;10.220;2023-04-03T06:47:04;2.20;99.90
6429;DHT22;3247;48.946;10.220;2023-04-03T06:49:30;2.30;99.90
6429;DHT22;3247;48.946;10.220;2023-04-03T06:51:55;2.40;99.90
6429;DHT22;3247;48.946;10.220;2023-04-03T06:54:21;2.40;99.90
6429;DHT22;3247;48.946;10.220;2023-04-03T06:56:47;2.60;99.90
6429;DHT22;3247;48.946;10.220;2023-04-03T06:59:12;2.80;99.90
6429;DHT22;3247;48.946;10.220;2023-04-03T07:01:38;2.90;99.90
6429;DHT22;3247;48.946;10.220;2023-04-03T07:04:04;2.80;99.90
6429;DHT22;3247;48.946;10.220;2023-04-03T07:06:31;2.70;99.90
6429;DHT22;3247;48.946;10.220;2023-04-03T07:08:57;2.80;99.90
6429;DHT22;3247;48.946;10.220;2023-04-03T07:11:23;2.80;99.90
6429;DHT22;3247;48.946;10.220;2023-04-03T07:13:48;2.80;99.90
6429;DHT22;3247;48.946;10.220;2023-04-03T07:16:15;2.90;99.90
6429;DHT22;3247;48.946;10.220;2023-04-03T07:18:41;3.00;99.90
6429;DHT22;3247;48.946;10.220;2023-04-03T07:21:06;3.00;99.90
6429;DHT22;3247;48.946;10.220;2023-04-03T07:23:32;3.10;99.90
6429;DHT22;3247;48.946;10.220;2023-04-03T07:25:58;3.20;99.90
6429;DHT22;3247;48.946;10.220;2023-04-03T07:28:24;3.40;99.90
6429;DHT22;3247;48.946;10.220;2023-04-03T07:30:52;3.20;99.90
6429;DHT22;3247;48.946;10.220;2023-04-03T07:33:18;3.20;99.90
6429;DHT22;3247;48.946;10.220;2023-04-03T07:35:44;3.30;99.90
6429;DHT22;3247;48.946;10.220;2023-04-03T07:38:10;3.50;99.90
6429;DHT22;3247;48.946;10.220;2023-04-03T07:40:36;3.60;99.90
6429;DHT22;3247;48.946;10.220;2023-04-03T07:43:01;3.50;99.90
6429;DHT22;3247;48.946;10.220;2023-04-03T07:45:27;4.00;99.90
6429;DHT22;3247;48.946;10.220;2023-04-03T07:47:53;3.30;99.90
6429;DHT22;3247;48.946;10.220;2023-04-03T07:50:18;3.30;99.90
6429;DHT22;3247;48.946;10.220;2023-04-03T07:52:44;3.30;99.90
6429;DHT22;3247;48.946;10.220;2023-04-03T07:55:10;3.30;99.90
6429;DHT22;3247;48.946;10.220;2023-04-03T07:57:36;3.30;99.90
6429;DHT22;3247;48.946;10.220;2023-04-03T08:00:05;3.40;99.90
6429;DHT22;3247;48.946;10.220;2023-04-03T08:02:31;3.40;99.90
6429;DHT22;3247;48.946;10.220;2023-04-03T08:04:59;3.40;99.90
6429;DHT22;3247;48.946;10.220;2023-04-03T08:07:25;3.40;99.90
6429;DHT22;3247;48.946;10.220;2023-04-03T08:09:50;3.50;99.90
6429;DHT22;3247;48.946;10.220;2023-04-03T08:12:16;3.60;99.90
6429;DHT22;3247;48.946;10.220;2023-04-03T08:14:41;3.90;99.90
6429;DHT22;3247;48.946;10.220;2023-04-03T08:17:07;3.40;99.90
6429;DHT22;3247;48.946;10.220;2023-04-03T08:19:37;3.70;99.90
6429;DHT22;3247;48.946;10.220;2023-04-03T08:22:02;3.30;99.90
6429;DHT22;3247;48.946;10.220;2023-04-03T08:24:28;3.80;99.90
6429;DHT22;3247;48.946;10.220;2023-04-03T08:26:54;4.00;99.90
6429;DHT22;3247;48.946;10.220;2023-04-03T08:29:19;4.00;99.90
6429;DHT22;3247;48.946;10.220;2023-04-03T08:31:46;4.10;99.90
6429;DHT22;3247;48.946;10.220;2023-04-03T08:34:12;4.10;99.90
6429;DHT22;3247;48.946;10.220;2023-04-03T08:36:38;4.20;99.90
6429;DHT22;3247;48.946;10.220;2023-04-03T08:39:04;4.30;99.90
6429;DHT22;3247;48.946;10.220;2023-04-03T08:41:39;4.20;99.90
6429;DHT22;3247;48.946;10.220;2023-04-03T08:47:10;4.20;99.90
6429;DHT22;3247;48.946;10.220;2023-04-03T08:49:24;4.30;99.90
6429;DHT22;3247;48.946;10.220;2023-04-03T08:51:51;4.30;99.90
6429;DHT22;3247;48.946;10.220;2023-04-03T08:54:21;4.40;99.90
6429;DHT22;3247;48.946;10.220;2023-04-03T08:56:48;4.50;99.90
6429;DHT22;3247;48.946;10.220;2023-04-03T08:59:14;4.50;99.90
6429;DHT22;3247;48.946;10.220;2023-04-03T09:01:42;4.50;99.90
6429;DHT22;3247;48.946;10.220;2023-04-03T09:04:10;4.70;99.90
6429;DHT22;3247;48.946;10.220;2023-04-03T09:06:36;4.90;99.90
6429;DHT22;3247;48.946;10.220;2023-04-03T09:09:13;4.60;99.90
6429;DHT22;3247;48.946;10.220;2023-04-03T09:17:12;4.70;99.90
6429;DHT22;3247;48.946;10.220;2023-04-03T09:19:41;4.70;99.90
6429;DHT22;3247;48.946;10.220;2023-04-03T09:22:18;4.40;99.90
6429;DHT22;3247;48.946;10.220;2023-04-03T09:24:45;4.60;99.90
6429;DHT22;3247;48.946;10.220;2023-04-03T09:27:12;4.80;99.90
6429;DHT22;3247;48.946;10.220;2023-04-03T09:29:39;4.90;99.90
6429;DHT22;3247;48.946;10.220;2023-04-03T09:34:43;5.10;99.90
6429;DHT22;3247;48.946;10.220;2023-04-03T09:37:09;5.30;99.90
6429;DHT22;3247;48.946;10.220;2023-04-03T09:39:48;5.20;99.90
6429;DHT22;3247;48.946;10.220;2023-04-03T09:42:19;5.10;99.90
6429;DHT22;3247;48.946;10.220;2023-04-03T09:44:54;4.90;99.90
6429;DHT22;3247;48.946;10.220;2023-04-03T09:47:26;4.90;99.90
6429;DHT22;3247;48.946;10.220;2023-04-03T09:50:13;4.90;99.90
6429;DHT22;3247;48.946;10.220;2023-04-03T09:52:41;4.90;99.90
6429;DHT22;3247;48.946;10.220;2023-04-03T09:55:10;4.90;99.90
6429;DHT22;3247;48.946;10.220;2023-04-03T09:57:38;4.70;99.90
6429;DHT22;3247;48.946;10.220;2023-04-03T10:00:04;4.50;99.90
6429;DHT22;3247;48.946;10.220;2023-04-03T10:05:04;3.80;99.90
6429;DHT22;3247;48.946;10.220;2023-04-03T10:09:56;4.60;99.90
6429;DHT22;3247;48.946;10.220;2023-04-03T10:12:22;4.70;99.90
6429;DHT22;3247;48.946;10.220;2023-04-03T10:14:55;4.70;99.90
6429;DHT22;3247;48.946;10.220;2023-04-03T10:17:42;4.80;99.90
6429;DHT22;3247;48.946;10.220;2023-04-03T10:22:48;4.70;99.90
6429;DHT22;3247;48.946;10.220;2023-04-03T10:25:25;4.70;99.90
6429;DHT22;3247;48.946;10.220;2023-04-03T10:30:42;4.60;99.90
6429;DHT22;3247;48.946;10.220;2023-04-03T10:35:58;4.70;99.90
6429;DHT22;3247;48.946;10.220;2023-04-03T10:41:08;4.70;99.90
6429;DHT22;3247;48.946;10.220;2023-04-03T10:43:43;4.90;99.90
6429;DHT22;3247;48.946;10.220;2023-04-03T10:46:17;4.90;99.90
6429;DHT22;3247;48.946;10.220;2023-04-03T10:48:52;4.90;99.90
6429;DHT22;3247;48.946;10.220;2023-04-03T10:53:50;4.90;99.90
6429;DHT22;3247;48.946;10.220;2023-04-03T10:59:13;4.60;99.90
6429;DHT22;3247;48.946;10.220;2023-04-03T11:01:43;4.50;99.90
6429;DHT22;3247;48.946;10.220;2023-04-03T11:04:09;4.30;99.90
6429;DHT22;3247;48.946;10.220;2023-04-03T11:06:41;4.30;99.90
6429;DHT22;3247;48.946;10.220;2023-04-03T11:09:31;4.40;99.90
6429;DHT22;3247;48.946;10.220;2023-04-03T11:14:37;4.40;99.90
6429;DHT22;3247;48.946;10.220;2023-04-03T11:17:19;4.40;99.90
6429;DHT22;3247;48.946;10.220;2023-04-03T11:19:52;4.60;99.90
6429;DHT22;3247;48.946;10.220;2023-04-03T11:22:23;4.60;99.90
6429;DHT22;3247;48.946;10.220;2023-04-03T11:24:56;4.50;99.90
6429;DHT22;3247;48.946;10.220;2023-04-03T11:27:24;4.50;99.90
6429;DHT22;3247;48.946;10.220;2023-04-03T11:29:50;4.50;99.90
6429;DHT22;3247;48.946;10.220;2023-04-03T11:34:46;4.80;99.90
6429;DHT22;3247;48.946;10.220;2023-04-03T11:37:16;4.90;99.90
6429;DHT22;3247;48.946;10.220;2023-04-03T11:39:47;5.00;99.90
6429;DHT22;3247;48.946;10.220;2023-04-03T11:44:39;5.20;99.90
6429;DHT22;3247;48.946;10.220;2023-04-03T11:47:05;5.40;99.90
6429;DHT22;3247;48.946;10.220;2023-04-03T11:49:50;5.50;99.90
6429;DHT22;3247;48.946;10.220;2023-04-03T11:52:53;5.80;99.90
6429;DHT22;3247;48.946;10.220;2023-04-03T11:55:01;5.80;99.90
6429;DHT22;3247;48.946;10.220;2023-04-03T11:57:46;6.20;99.90
6429;DHT22;3247;48.946;10.220;2023-04-03T12:02:56;5.90;99.90
6429;DHT22;3247;48.946;10.220;2023-04-03T12:05:26;5.70;99.90
6429;DHT22;3247;48.946;10.220;2023-04-03T12:10:38;5.40;99.90
6429;DHT22;3247;48.946;10.220;2023-04-03T12:13:12;5.30;99.90
6429;DHT22;3247;48.946;10.220;2023-04-03T12:23:30;5.40;99.90
6429;DHT22;3247;48.946;10.220;2023-04-03T12:26:02;5.40;99.90
6429;DHT22;3247;48.946;10.220;2023-04-03T12:28:29;5.50;99.90
6429;DHT22;3247;48.946;10.220;2023-04-03T12:30:54;5.60;99.90
6429;DHT22;3247;48.946;10.220;2023-04-03T12:34:04;5.90;99.90
6429;DHT22;3247;48.946;10.220;2023-04-03T12:36:23;5.80;99.90
6429;DHT22;3247;48.946;10.220;2023-04-03T12:46:35;5.90;99.90
6429;DHT22;3247;48.946;10.220;2023-04-03T12:49:05;6.00;99.90
6429;DHT22;3247;48.946;10.220;2023-04-03T12:51:39;6.00;99.90
6429;DHT22;3247;48.946;10.220;2023-04-03T12:54:13;5.90;99.90
6429;DHT22;3247;48.946;10.220;2023-04-03T12:56:40;5.80;99.90
6429;DHT22;3247;48.946;10.220;2023-04-03T12:59:13;5.90;99.90
6429;DHT22;3247;48.946;10.220;2023-04-03T13:01:38;6.00;99.90
6429;DHT22;3247;48.946;10.220;2023-04-03T13:04:04;6.00;99.90
6429;DHT22;3247;48.946;10.220;2023-04-03T13:06:32;6.00;99.90
6429;DHT22;3247;48.946;10.220;2023-04-03T13:08:59;5.80;99.90
6429;DHT22;3247;48.946;10.220;2023-04-03T13:11:27;5.90;99.90
6429;DHT22;3247;48.946;10.220;2023-04-03T13:13:57;5.90;99.90
6429;DHT22;3247;48.946;10.220;2023-04-03T13:16:23;5.80;99.90
6429;DHT22;3247;48.946;10.220;2023-04-03T13:18:52;5.80;99.90
6429;DHT22;3247;48.946;10.220;2023-04-03T13:21:19;5.90;99.90
6429;DHT22;3247;48.946;10.220;2023-04-03T13:23:46;6.00;99.90
6429;DHT22;3247;48.946;10.220;2023-04-03T13:26:12;6.40;99.90
6429;DHT22;3247;48.946;10.220;2023-04-03T13:28:41;6.70;99.90
6429;DHT22;3247;48.946;10.220;2023-04-03T13:33:35;6.70;99.90
6429;DHT22;3247;48.946;10.220;2023-04-03T13:38:31;6.20;99.90
6429;DHT22;3247;48.946;10.220;2023-04-03T13:41:00;6.10;99.90
6429;DHT22;3247;48.946;10.220;2023-04-03T13:43:28;6.00;99.90
6429;DHT22;3247;48.946;10.220;2023-04-03T13:45:57;5.80;99.90
6429;DHT22;3247;48.946;10.220;2023-04-03T13:48:23;6.10;99.90
6429;DHT22;3247;48.946;10.220;2023-04-03T13:53:17;5.50;99.90
6429;DHT22;3247;48.946;10.220;2023-04-03T13:55:53;5.60;99.90
6429;DHT22;3247;48.946;10.220;2023-04-03T13:58:22;5.70;99.90
6429;DHT22;3247;48.946;10.220;2023-04-03T14:00:50;5.80;99.90
6429;DHT22;3247;48.946;10.220;2023-04-03T14:05:44;6.20;99.90
6429;DHT22;3247;48.946;10.220;2023-04-03T14:08:10;6.50;99.90
6429;DHT22;3247;48.946;10.220;2023-04-03T14:10:36;6.80;99.90
6429;DHT22;3247;48.946;10.220;2023-04-03T14:13:02;6.90;99.90
6429;DHT22;3247;48.946;10.220;2023-04-03T14:15:28;6.90;99.90
6429;DHT22;3247;48.946;10.220;2023-04-03T14:17:55;6.40;99.90
6429;DHT22;3247;48.946;10.220;2023-04-03T14:20:22;6.00;99.90
6429;DHT22;3247;48.946;10.220;2023-04-03T14:22:48;5.60;99.90
6429;DHT22;3247;48.946;10.220;2023-04-03T14:25:14;5.40;99.90
6429;DHT22;3247;48.946;10.220;2023-04-03T14:27:43;5.30;99.90
6429;DHT22;3247;48.946;10.220;2023-04-03T14:30:26;5.30;99.90
6429;DHT22;3247;48.946;10.220;2023-04-03T14:32:52;5.40;99.90
6429;DHT22;3247;48.946;10.220;2023-04-03T14:35:18;5.70;99.90
6429;DHT22;3247;48.946;10.220;2023-04-03T14:37:44;6.30;99.90
6429;DHT22;3247;48.946;10.220;2023-04-03T14:40:11;6.00;99.90
6429;DHT22;3247;48.946;10.220;2023-04-03T14:42:39;6.20;99.90
6429;DHT22;3247;48.946;10.220;2023-04-03T14:45:06;6.30;99.90
6429;DHT22;3247;48.946;10.220;2023-04-03T14:47:33;6.60;99.90
6429;DHT22;3247;48.946;10.220;2023-04-03T14:50:00;6.70;99.90
6429;DHT22;3247;48.946;10.220;2023-04-03T14:52:27;6.60;99.90
6429;DHT22;3247;48.946;10.220;2023-04-03T14:54:54;6.40;99.90
6429;DHT22;3247;48.946;10.220;2023-04-03T14:57:20;6.30;99.90
6429;DHT22;3247;48.946;10.220;2023-04-03T14:59:47;6.10;99.90
6429;DHT22;3247;48.946;10.220;2023-04-03T15:02:29;5.90;99.90
6429;DHT22;3247;48.946;10.220;2023-04-03T15:04:59;5.80;99.90
6429;DHT22;3247;48.946;10.220;2023-04-03T15:07:25;5.60;99.90
6429;DHT22;3247;48.946;10.220;2023-04-03T15:09:51;5.60;99.90
6429;DHT22;3247;48.946;10.220;2023-04-03T15:12:17;5.70;99.90
6429;DHT22;3247;48.946;10.220;2023-04-03T15:14:42;5.70;99.90
6429;DHT22;3247;48.946;10.220;2023-04-03T15:17:10;5.60;99.90
6429;DHT22;3247;48.946;10.220;2023-04-03T15:19:39;5.50;99.90
6429;DHT22;3247;48.946;10.220;2023-04-03T15:22:04;5.50;99.90
6429;DHT22;3247;48.946;10.220;2023-04-03T15:24:30;5.30;99.90
6429;DHT22;3247;48.946;10.220;2023-04-03T15:26:55;5.30;99.90
6429;DHT22;3247;48.946;10.220;2023-04-03T15:29:21;5.60;99.90
6429;DHT22;3247;48.946;10.220;2023-04-03T15:31:46;5.80;99.90
6429;DHT22;3247;48.946;10.220;2023-04-03T15:34:12;6.10;99.90
6429;DHT22;3247;48.946;10.220;2023-04-03T15:36:37;6.20;99.90
6429;DHT22;3247;48.946;10.220;2023-04-03T15:39:03;6.20;99.90
6429;DHT22;3247;48.946;10.220;2023-04-03T15:41:28;6.10;99.90
6429;DHT22;3247;48.946;10.220;2023-04-03T15:43:54;6.00;99.90
6429;DHT22;3247;48.946;10.220;2023-04-03T15:46:19;5.90;99.90
6429;DHT22;3247;48.946;10.220;2023-04-03T15:48:45;5.80;99.90
6429;DHT22;3247;48.946;10.220;2023-04-03T15:51:10;5.70;99.90
6429;DHT22;3247;48.946;10.220;2023-04-03T15:53:36;5.60;99.90
6429;DHT22;3247;48.946;10.220;2023-04-03T15:56:01;5.60;99.90
6429;DHT22;3247;48.946;10.220;2023-04-03T15:58:27;5.50;99.90
6429;DHT22;3247;48.946;10.220;2023-04-03T16:00:52;5.30;99.90
6429;DHT22;3247;48.946;10.220;2023-04-03T16:03:18;5.20;99.90
6429;DHT22;3247;48.946;10.220;2023-04-03T16:05:44;5.10;99.90
6429;DHT22;3247;48.946;10.220;2023-04-03T16:08:10;4.30;99.90
6429;DHT22;3247;48.946;10.220;2023-04-03T16:10:36;4.80;99.90
6429;DHT22;3247;48.946;10.220;2023-04-03T16:13:02;4.80;99.90
6429;DHT22;3247;48.946;10.220;2023-04-03T16:15:28;4.80;99.90
6429;DHT22;3247;48.946;10.220;2023-04-03T16:17:54;4.90;99.90
6429;DHT22;3247;48.946;10.220;2023-04-03T16:20:19;5.20;99.90
6429;DHT22;3247;48.946;10.220;2023-04-03T16:22:47;5.30;99.90
6429;DHT22;3247;48.946;10.220;2023-04-03T16:25:12;5.30;99.90
6429;DHT22;3247;48.946;10.220;2023-04-03T16:27:38;5.40;99.90
6429;DHT22;3247;48.946;10.220;2023-04-03T16:30:04;5.30;99.90
6429;DHT22;3247;48.946;10.220;2023-04-03T16:32:30;5.30;99.90
6429;DHT22;3247;48.946;10.220;2023-04-03T16:34:56;5.30;99.90
6429;DHT22;3247;48.946;10.220;2023-04-03T16:37:22;5.30;99.90
6429;DHT22;3247;48.946;10.220;2023-04-03T16:39:47;5.30;99.90
6429;DHT22;3247;48.946;10.220;2023-04-03T16:42:13;5.20;99.90
6429;DHT22;3247;48.946;10.220;2023-04-03T16:44:38;5.30;99.90
6429;DHT22;3247;48.946;10.220;2023-04-03T16:47:05;5.10;99.90
6429;DHT22;3247;48.946;10.220;2023-04-03T16:49:31;5.10;99.90
6429;DHT22;3247;48.946;10.220;2023-04-03T16:51:59;5.00;99.90
6429;DHT22;3247;48.946;10.220;2023-04-03T16:54:26;4.90;99.90
6429;DHT22;3247;48.946;10.220;2023-04-03T16:56:51;4.90;99.90
6429;DHT22;3247;48.946;10.220;2023-04-03T16:59:17;4.90;99.90
6429;DHT22;3247;48.946;10.220;2023-04-03T17:01:42;4.80;99.90
6429;DHT22;3247;48.946;10.220;2023-04-03T17:04:11;4.60;99.90
6429;DHT22;3247;48.946;10.220;2023-04-03T17:06:38;4.60;99.90
6429;DHT22;3247;48.946;10.220;2023-04-03T17:09:03;4.60;99.90
6429;DHT22;3247;48.946;10.220;2023-04-03T17:11:29;4.50;99.90
6429;DHT22;3247;48.946;10.220;2023-04-03T17:13:55;4.40;99.90
6429;DHT22;3247;48.946;10.220;2023-04-03T17:16:21;4.30;99.90
6429;DHT22;3247;48.946;10.220;2023-04-03T17:18:46;4.20;99.90
6429;DHT22;3247;48.946;10.220;2023-04-03T17:21:12;4.30;99.90
6429;DHT22;3247;48.946;10.220;2023-04-03T17:23:38;4.20;99.90
6429;DHT22;3247;48.946;10.220;2023-04-03T17:26:04;4.30;99.90
6429;DHT22;3247;48.946;10.220;2023-04-03T17:28:29;4.10;99.90
6429;DHT22;3247;48.946;10.220;2023-04-03T17:30:56;4.10;99.90
6429;DHT22;3247;48.946;10.220;2023-04-03T17:33:25;4.10;99.90
6429;DHT22;3247;48.946;10.220;2023-04-03T17:35:53;3.90;99.90
6429;DHT22;3247;48.946;10.220;2023-04-03T17:38:20;3.90;99.90
6429;DHT22;3247;48.946;10.220;2023-04-03T17:40:46;3.80;99.90
6429;DHT22;3247;48.946;10.220;2023-04-03T17:43:11;3.80;99.90